CWLY

Lytton Airport

Lytton, Canada
METAR CWLY 191722Z AUTO 21014G28KT 9SM -RA OVC065 06/03 A2984 RMK SLP114
Observed Flight Rules
Jan-19 @ 17:22 UTC (10 minutes ago) Visual Flight Rules
Wind Visibility Clouds Conditions
210° at 14 knots
 Gusting to 28 knots
9 miles
  • Overcast at 6,500' AGL
  • Light Rain
Temperatures Readings
Current 6°C / 43°F
Dewpoint 3°C / 37°F
Humidity 81%
Altimeter 29.84" Hg
Pressure 1011.4 hPa
Elevation 229
METAR CWLY 191722Z AUTO 21014G28KT 9SM -RA OVC065 06/03 A2984 RMK SLP114
Observed Flight Rules
Jan-19 @ 17:22 UTC
(10 minutes ago)
VFR
Wind Visibility
210° at 14 knots
 Gusting to 28 knots
9 miles
Clouds
  • Overcast at 6,500' AGL
Conditions
  • Light Rain
Temperature Dewpoint
6°C / 43°F 3°C / 37°F
Humidity Altimeter Pressure
81% 29.84" Hg 1011.4 hPa